Time;durP1;ratioP1;P1;durP2;ratioP2;P2;SDS_P1;SDS_P2;PMS_P1;PMS_P2;Temp;Humidity;BMP_temperature;BMP_pressure;BME280_temperature;BME280_humidity;BME280_pressure;Samples;Min_cycle;Max_cycle;Signal;HPM_P1;HPM_P2
2021/01/25 00:02:22;;;;;;;24.83;15.38;;;;;;;-145.61;100.00;68426.72;4921651;29;20032;-91
2021/01/25 00:04:47;;;;;;;20.45;13.35;;;;;;;-145.61;100.00;68426.72;4926649;29;20064;-90
2021/01/25 00:07:13;;;;;;;18.38;12.10;;;;;;;-145.61;100.00;68426.72;4921947;29;20028;-91
2021/01/25 00:09:39;;;;;;;20.70;13.30;;;;;;;-145.61;100.00;68426.72;4956327;28;20024;-91
2021/01/25 00:12:04;;;;;;;19.35;13.15;;;;;;;-145.61;100.00;68426.72;4939828;29;20439;-91
2021/01/25 00:14:30;;;;;;;18.65;13.32;;;;;;;-145.61;100.00;68426.72;4940227;29;20177;-91
2021/01/25 00:16:55;;;;;;;22.38;15.25;;;;;;;-145.61;100.00;68426.72;4940175;29;20028;-91
2021/01/25 00:19:20;;;;;;;21.63;14.75;;;;;;;-145.61;100.00;68426.72;4940106;29;20103;-91
2021/01/25 00:21:46;;;;;;;20.73;14.13;;;;;;;-145.61;100.00;68426.72;4940075;29;20118;-91
2021/01/25 00:24:12;;;;;;;21.15;13.88;;;;;;;-145.61;100.00;68426.72;4922640;29;20369;-91
2021/01/25 00:26:38;;;;;;;20.75;14.13;;;;;;;-145.61;100.00;68426.72;4921711;29;20055;-90
2021/01/25 00:29:03;;;;;;;22.67;14.55;;;;;;;-145.61;100.00;68426.72;4921416;29;20027;-90
2021/01/25 00:31:30;;;;;;;14.85;8.95;;;;;;;-145.61;100.00;68426.72;4922010;29;20062;-90
2021/01/25 00:33:55;;;;;;;9.98;6.72;;;;;;;-145.61;100.00;68426.72;4920803;29;20067;-91
2021/01/25 00:36:20;;;;;;;7.50;6.00;;;;;;;-145.61;100.00;68426.72;4920947;29;20051;-91
2021/01/25 00:38:46;;;;;;;6.32;5.40;;;;;;;-145.61;100.00;68426.72;4921177;29;20492;-91
2021/01/25 00:41:11;;;;;;;6.53;4.80;;;;;;;-145.61;100.00;68426.72;4921574;29;20413;-91
2021/01/25 00:43:37;;;;;;;7.32;5.30;;;;;;;-145.61;100.00;68426.72;4921266;29;20071;-90
2021/01/25 00:46:02;;;;;;;6.32;4.82;;;;;;;-145.61;100.00;68426.72;4924280;29;20028;-90
2021/01/25 00:48:27;;;;;;;6.63;5.40;;;;;;;-145.61;100.00;68426.72;4920897;29;20032;-91
2021/01/25 00:50:53;;;;;;;6.10;4.50;;;;;;;-145.61;100.00;68426.72;4942962;29;20054;-90
2021/01/25 00:53:18;;;;;;;6.47;4.68;;;;;;;-145.61;100.00;68426.72;4959071;29;20034;-90
2021/01/25 00:55:43;;;;;;;4.85;4.22;;;;;;;-145.61;100.00;68426.72;4959010;29;20121;-90
2021/01/25 00:58:10;;;;;;;5.35;4.65;;;;;;;-145.61;100.00;68426.72;4959039;29;20388;-89
2021/01/25 01:00:35;;;;;;;4.78;4.13;;;;;;;-145.61;100.00;68426.72;4959033;29;20095;-90
2021/01/25 01:03:02;;;;;;;5.00;4.32;;;;;;;-145.61;100.00;68426.72;4958822;29;20047;-90
2021/01/25 01:05:27;;;;;;;4.32;3.88;;;;;;;-145.61;100.00;68426.72;4958795;29;20069;-90
2021/01/25 01:07:53;;;;;;;5.30;4.22;;;;;;;-145.61;100.00;68426.72;4958881;29;20088;-91
2021/01/25 01:10:18;;;;;;;6.70;4.10;;;;;;;-145.61;100.00;68426.72;4974823;28;20039;-91
2021/01/25 01:12:44;;;;;;;4.53;3.58;;;;;;;-145.61;100.00;68426.72;4958648;29;20027;-91
2021/01/25 01:15:11;;;;;;;5.68;4.20;;;;;;;-145.61;100.00;68426.72;4958299;29;20062;-90
2021/01/25 01:17:38;;;;;;;4.03;3.30;;;;;;;-145.61;100.00;68426.72;4958751;29;20035;-91
2021/01/25 01:20:05;;;;;;;3.85;3.30;;;;;;;-145.61;100.00;68426.72;4958461;28;20122;-91
2021/01/25 01:22:30;;;;;;;4.03;3.30;;;;;;;-145.61;100.00;68426.72;4957648;28;20259;-90
2021/01/25 01:24:55;;;;;;;4.75;3.35;;;;;;;-145.61;100.00;68426.72;4958359;29;20055;-91
2021/01/25 01:27:21;;;;;;;4.03;3.50;;;;;;;-145.61;100.00;68426.72;4958298;29;20034;-90
2021/01/25 01:29:46;;;;;;;4.43;3.40;;;;;;;-145.61;100.00;68426.72;4958445;29;20071;-90
2021/01/25 01:32:11;;;;;;;4.20;3.47;;;;;;;-145.61;100.00;68426.72;4958356;28;20027;-90
2021/01/25 01:34:37;;;;;;;5.15;3.50;;;;;;;-145.61;100.00;68426.72;4958268;29;20031;-90
2021/01/25 01:37:02;;;;;;;3.90;3.50;;;;;;;-145.61;100.00;68426.72;4958185;29;20023;-91
2021/01/25 01:39:29;;;;;;;4.55;3.15;;;;;;;-145.61;100.00;68426.72;4958053;29;20023;-90
2021/01/25 01:41:54;;;;;;;4.25;3.60;;;;;;;-145.61;100.00;68426.72;4958265;29;20034;-91
2021/01/25 01:44:19;;;;;;;5.45;3.88;;;;;;;-145.61;100.00;68426.72;4957848;29;20027;-91
2021/01/25 01:46:46;;;;;;;5.68;3.60;;;;;;;-145.61;100.00;68426.72;4939201;29;20027;-91
2021/01/25 01:49:13;;;;;;;4.70;3.67;;;;;;;-145.61;100.00;68426.72;4938775;29;20023;-90
2021/01/25 01:51:40;;;;;;;4.80;3.63;;;;;;;-145.61;100.00;68426.72;4939146;29;20118;-90
2021/01/25 01:54:06;;;;;;;4.75;3.30;;;;;;;-145.61;100.00;68426.72;4954017;28;20043;-91
2021/01/25 01:56:33;;;;;;;4.30;3.72;;;;;;;-145.61;100.00;68426.72;4938938;29;20045;-91
2021/01/25 01:58:58;;;;;;;4.40;3.40;;;;;;;-145.61;100.00;68426.72;4938902;29;20023;-91
2021/01/25 02:01:24;;;;;;;6.30;3.97;;;;;;;-145.61;100.00;68426.72;4939170;29;20087;-91
2021/01/25 02:03:50;;;;;;;4.18;3.30;;;;;;;-145.61;100.00;68426.72;4935763;29;20035;-91
2021/01/25 02:06:18;;;;;;;4.35;3.95;;;;;;;-145.61;100.00;68426.72;4919966;29;20035;-90
2021/01/25 02:08:45;;;;;;;4.32;3.58;;;;;;;-145.61;100.00;68426.72;4936345;29;20028;-90
2021/01/25 02:11:11;;;;;;;5.03;3.47;;;;;;;-145.61;100.00;68426.72;4919758;29;20038;-90
2021/01/25 02:13:37;;;;;;;4.28;3.50;;;;;;;-145.61;100.00;68426.72;4919694;29;20344;-91
2021/01/25 02:16:03;;;;;;;5.35;3.60;;;;;;;-145.61;100.00;68426.72;4920898;29;20035;-91
2021/01/25 02:18:29;;;;;;;4.00;3.20;;;;;;;2.93;69.24;94239.50;4919663;29;20021;-91
2021/01/25 02:20:56;;;;;;;4.40;3.42;;;;;;;2.93;69.24;94239.50;4919999;29;20036;-91
2021/01/25 02:23:44;;;;;;;4.95;3.38;;;;;;;-145.61;100.00;68426.72;4920057;29;20031;-91
2021/01/25 02:26:19;;;;;;;4.20;3.40;;;;;;;0.81;67.97;94160.41;4935666;29;20052;-90
2021/01/25 02:28:45;;;;;;;5.07;3.67;;;;;;;0.32;68.10;94113.94;4935791;29;20024;-91
2021/01/25 02:31:11;;;;;;;5.07;3.80;;;;;;;0.32;68.10;94113.94;4919790;29;20038;-91
2021/01/25 02:33:43;;;;;;;4.32;3.35;;;;;;;0.32;68.10;94113.94;4919149;29;20070;-90
2021/01/25 02:36:09;;;;;;;5.40;3.65;;;;;;;0.24;66.68;94099.38;4939059;29;20027;-91
2021/01/25 02:42:27;;;;;;;5.25;3.30;;;;;;;0.24;66.68;94099.38;4924245;29;20076;-90
2021/01/25 02:44:54;;;;;;;5.38;3.30;;;;;;;-145.61;nan;68426.72;4923005;29;20063;-91
2021/01/25 02:47:21;;;;;;;3.85;3.47;;;;;;;0.81;100.00;68426.72;4923124;29;20417;-91
2021/01/25 02:49:46;;;;;;;4.68;3.42;;;;;;;0.81;66.18;94160.41;4938674;29;20016;-91
2021/01/25 02:52:14;;;;;;;4.82;3.50;;;;;;;0.81;66.18;94160.41;4938877;29;20439;-91
2021/01/25 02:54:39;;;;;;;5.15;3.90;;;;;;;0.42;67.21;94126.09;4938485;29;20059;-91
2021/01/25 02:57:08;;;;;;;4.20;3.30;;;;;;;0.42;67.21;94126.09;4942589;29;20408;-91
2021/01/25 02:59:39;;;;;;;4.68;3.42;;;;;;;0.34;67.96;94116.91;4941650;29;20031;-91
2021/01/25 03:02:08;;;;;;;5.28;3.47;;;;;;;0.34;67.96;94116.91;4942631;28;20024;-91
2021/01/25 03:04:35;;;;;;;3.97;3.42;;;;;;;0.79;67.16;94169.59;4941577;29;20031;-91
2021/01/25 03:07:01;;;;;;;4.15;3.40;;;;;;;0.79;67.16;94169.59;4941868;29;20165;-91
2021/01/25 03:09:27;;;;;;;3.60;3.17;;;;;;;0.79;67.16;94169.59;4941564;29;20035;-91
2021/01/25 03:11:55;;;;;;;3.53;2.95;;;;;;;0.79;67.16;94169.59;4941881;28;20019;-91
2021/01/25 03:14:20;;;;;;;4.68;3.42;;;;;;;0.39;67.46;94108.28;4958171;28;20055;-91
2021/01/25 03:16:46;;;;;;;4.38;3.60;;;;;;;0.39;67.46;94108.28;4938253;29;20027;-91
2021/01/25 03:19:12;;;;;;;5.75;3.92;;;;;;;0.29;67.02;94093.44;4922174;29;20058;-91
2021/01/25 03:21:45;;;;;;;5.57;3.90;;;;;;;0.79;68.39;94166.91;4934243;29;20087;-91
2021/01/25 03:24:11;;;;;;;4.97;3.58;;;;;;;0.79;68.39;94166.91;4941342;29;20086;-90
2021/01/25 03:26:36;;;;;;;4.13;3.72;;;;;;;0.79;68.39;94166.91;4938050;29;20104;-91
2021/01/25 03:29:02;;;;;;;5.82;4.07;;;;;;;0.79;68.39;94166.91;4922286;29;20024;-91
2021/01/25 03:31:27;;;;;;;5.10;4.10;;;;;;;0.79;68.39;94166.91;4939110;29;20054;-91
2021/01/25 03:33:52;;;;;;;6.00;3.53;;;;;;;0.79;68.39;94166.91;4922250;29;20321;-90
2021/01/25 03:36:18;;;;;;;7.03;4.22;;;;;;;0.79;68.39;94166.91;4956526;29;20051;-90
2021/01/25 03:38:43;;;;;;;4.65;4.03;;;;;;;0.79;68.39;94166.91;4926376;29;20428;-90
2021/01/25 03:41:09;;;;;;;5.05;3.67;;;;;;;0.79;68.39;94166.91;4937214;29;20038;-90
2021/01/25 03:43:35;;;;;;;4.30;3.50;;;;;;;0.52;66.02;94116.91;4940959;29;20024;-90
2021/01/25 03:46:00;;;;;;;4.45;3.60;;;;;;;0.36;65.00;94119.13;4940497;29;20053;-90
2021/01/25 03:48:25;;;;;;;4.72;3.85;;;;;;;0.32;65.27;94124.63;4941070;29;20026;-90
2021/01/25 03:50:51;;;;;;;5.15;3.40;;;;;;;-0.02;65.68;94080.22;4940800;29;20031;-90
2021/01/25 03:53:16;;;;;;;4.18;3.40;;;;;;;0.13;66.16;94094.47;4940965;29;20070;-91
2021/01/25 03:55:45;;;;;;;4.80;3.45;;;;;;;0.26;67.75;94097.75;4937473;29;20333;-90
2021/01/25 03:58:11;;;;;;;4.45;3.70;;;;;;;0.84;100.00;68426.72;4937392;29;20067;-90
2021/01/25 04:00:36;;;;;;;4.88;3.63;;;;;;;0.84;68.26;94157.56;4922814;29;20032;-91
2021/01/25 04:03:02;;;;;;;5.45;3.40;;;;;;;0.23;67.44;94073.88;4921712;29;20074;-90
2021/01/25 04:05:28;;;;;;;5.32;3.65;;;;;;;0.82;68.81;94159.22;4937485;29;20054;-90
2021/01/25 04:07:53;;;;;;;6.10;3.95;;;;;;;0.46;68.84;94101.91;4947240;29;20035;-90
2021/01/25 04:10:18;;;;;;;5.55;3.72;;;;;;;0.60;100.00;86476.38;4926198;29;20154;-90
2021/01/25 04:12:44;;;;;;;3.45;2.97;;;;;;;0.30;67.99;94084.25;4937203;29;20313;-91
2021/01/25 04:15:09;;;;;;;5.13;3.50;;;;;;;0.25;67.07;94071.50;4921497;29;20091;-91
2021/01/25 04:17:36;;;;;;;4.50;3.55;;;;;;;0.25;67.07;94071.50;4921254;29;20028;-91
2021/01/25 04:20:03;;;;;;;4.88;3.55;;;;;;;0.16;69.36;94050.13;4921184;29;20416;-90
2021/01/25 04:22:28;;;;;;;5.43;3.38;;;;;;;0.16;69.36;94050.13;4921067;29;20020;-91
2021/01/25 04:24:55;;;;;;;7.38;3.38;;;;;;;0.39;67.13;94076.25;4956154;29;20051;-90
2021/01/25 04:27:20;;;;;;;4.50;3.78;;;;;;;0.39;100.00;86447.88;4953028;29;20047;-90
2021/01/25 04:29:46;;;;;;;3.53;3.15;;;;;;;0.33;66.13;94085.31;4966644;28;20435;-91
2021/01/25 04:32:11;;;;;;;4.30;3.33;;;;;;;0.56;66.54;94124.03;4939812;29;20032;-90
2021/01/25 04:34:36;;;;;;;3.72;3.40;;;;;;;-0.12;65.47;94034.09;4924724;29;20047;-91
2021/01/25 04:37:03;;;;;;;3.92;3.15;;;;;;;0.24;65.77;94070.00;4938702;29;20028;-91
2021/01/25 04:39:28;;;;;;;4.10;3.13;;;;;;;0.23;66.44;94087.22;4939698;29;20032;-90
2021/01/25 04:41:54;;;;;;;6.00;3.40;;;;;;;0.52;66.38;94126.84;4939750;29;20023;-90
2021/01/25 04:44:22;;;;;;;5.00;2.80;;;;;;;-0.19;65.66;94050.38;4939874;29;20123;-91
2021/01/25 04:46:48;;;;;;;4.78;3.58;;;;;;;0.52;100.00;94140.94;4939871;28;20023;-90
2021/01/25 04:49:14;;;;;;;4.50;3.88;;;;;;;0.12;67.96;94086.91;4939808;29;20031;-89
2021/01/25 04:51:41;;;;;;;4.82;3.60;;;;;;;0.52;68.09;94142.88;4939526;29;20027;-90
2021/01/25 04:54:07;;;;;;;4.18;3.60;;;;;;;-0.02;67.35;94070.28;4954619;28;20447;-90
2021/01/25 04:56:35;;;;;;;3.25;2.95;;;;;;;0.20;67.68;94096.84;4920733;29;20024;-90
2021/01/25 04:59:01;;;;;;;3.63;3.00;;;;;;;-0.10;67.67;94061.09;4920431;29;20067;-90
2021/01/25 05:01:26;;;;;;;4.55;3.35;;;;;;;0.09;100.00;68426.72;4927394;29;20028;-90
2021/01/25 05:03:52;;;;;;;4.63;3.17;;;;;;;0.41;67.11;94135.28;4933528;29;20297;-90
2021/01/25 05:06:19;;;;;;;3.50;2.80;;;;;;;0.41;67.11;94135.28;4939478;29;20440;-90
2021/01/25 05:08:45;;;;;;;3.50;2.60;;;;;;;0.41;67.11;94135.28;4939554;29;20062;-90
2021/01/25 05:11:12;;;;;;;3.58;2.97;;;;;;;0.55;68.50;94149.28;4932431;29;20441;-90
2021/01/25 05:13:38;;;;;;;4.13;3.15;;;;;;;0.06;65.89;94086.75;4920178;29;20024;-90
2021/01/25 05:16:17;;;;;;;3.28;2.85;;;;;;;-0.15;67.64;94085.69;4930211;29;20545;-91
2021/01/25 05:18:43;;;;;;;5.30;3.00;;;;;;;-0.15;67.64;94085.69;4951631;29;20040;-91
2021/01/25 05:21:09;;;;;;;5.15;3.90;;;;;;;-0.15;67.64;94085.69;4952251;28;20024;-91
2021/01/25 05:23:39;;;;;;;5.05;4.45;;;;;;;-0.15;67.64;94085.69;4920498;29;20373;-91
2021/01/25 05:26:06;;;;;;;4.97;4.40;;;;;;;-0.15;67.64;94085.69;4939325;28;20039;-91
2021/01/25 05:28:39;;;;;;;3.63;2.90;;;;;;;-0.15;67.64;94085.69;4939161;29;20324;-91
2021/01/25 05:31:04;;;;;;;6.70;4.53;;;;;;;-0.15;67.64;94085.69;4935704;29;20020;-90
2021/01/25 05:33:34;;;;;;;5.72;5.00;;;;;;;-145.61;100.00;68426.72;4923538;29;20039;-90
2021/01/25 05:35:59;;;;;;;5.55;3.50;;;;;;;-0.15;67.64;94085.69;4935928;29;20032;-90
2021/01/25 05:38:24;;;;;;;3.90;3.13;;;;;;;-0.15;67.64;94085.69;4919715;29;20025;-91
2021/01/25 05:40:55;;;;;;;3.70;3.22;;;;;;;-0.15;67.64;94085.69;4922819;29;20028;-90
2021/01/25 05:43:21;;;;;;;4.70;3.45;;;;;;;-0.15;67.64;94085.69;4941358;29;20028;-92
2021/01/25 05:45:46;;;;;;;5.80;3.35;;;;;;;-145.61;100.00;68426.72;4919892;29;20042;-91
2021/01/25 05:48:13;;;;;;;6.10;5.28;;;;;;;-0.15;67.64;94085.69;4935047;29;20110;-90
2021/01/25 05:50:40;;;;;;;6.43;5.65;;;;;;;-145.61;100.00;68426.72;4919947;29;20028;-90
2021/01/25 05:53:11;;;;;;;5.57;4.70;;;;;;;-145.61;100.00;68426.72;4920132;29;20035;-90
2021/01/25 05:55:37;;;;;;;6.53;5.13;;;;;;;-145.61;100.00;68426.72;4919863;29;20092;-90
2021/01/25 05:58:04;;;;;;;5.72;5.13;;;;;;;-145.61;100.00;68426.72;4919671;29;20032;-90
2021/01/25 06:00:33;;;;;;;5.05;4.25;;;;;;;-145.61;100.00;68426.72;4925680;29;20063;-90
2021/01/25 06:03:00;;;;;;;5.35;3.75;;;;;;;-145.61;100.00;68426.72;4933083;28;20070;-90
2021/01/25 06:05:33;;;;;;;4.55;3.70;;;;;;;-145.61;100.00;68426.72;4938778;29;20504;-89
2021/01/25 06:08:20;;;;;;;4.70;3.30;;;;;;;-0.15;67.64;94085.69;4930582;29;20417;-90
2021/01/25 06:11:01;;;;;;;3.70;3.15;;;;;;;-0.15;67.64;94085.69;4930805;29;20043;-90
2021/01/25 06:13:37;;;;;;;4.38;3.83;;;;;;;-0.15;67.64;94085.69;4931056;29;20028;-90
2021/01/25 06:16:08;;;;;;;5.45;4.10;;;;;;;0.58;69.49;94172.41;4958450;28;20052;-91
2021/01/25 06:18:33;;;;;;;6.43;4.95;;;;;;;0.58;69.49;94172.41;4958256;28;20122;-92
2021/01/25 06:21:01;;;;;;;6.43;4.22;;;;;;;0.58;69.49;94172.41;4942592;29;20318;-93
2021/01/25 06:23:27;;;;;;;6.70;3.80;;;;;;;0.58;69.49;94172.41;4957736;28;20122;-91
2021/01/25 06:25:52;;;;;;;5.85;4.15;;;;;;;-0.08;69.70;94088.06;4940198;29;20051;-92
2021/01/25 06:28:20;;;;;;;6.07;4.70;;;;;;;-145.61;100.00;68426.72;4936159;29;20024;-94
2021/01/25 06:30:48;;;;;;;4.63;3.50;;;;;;;0.09;65.20;94114.50;4936267;29;20027;-93
2021/01/25 06:33:15;;;;;;;4.95;3.65;;;;;;;0.57;66.77;94193.03;4923081;29;20028;-93
2021/01/25 06:35:40;;;;;;;3.65;3.10;;;;;;;0.38;66.96;94148.81;4938618;29;20074;-92
2021/01/25 06:38:13;;;;;;;3.35;2.83;;;;;;;0.28;65.41;94126.69;4926182;29;20320;-91
2021/01/25 06:40:42;;;;;;;3.50;3.20;;;;;;;0.28;65.41;94126.69;4940720;29;20058;-92
2021/01/25 06:43:09;;;;;;;4.25;3.20;;;;;;;0.32;65.44;94137.97;4936623;29;20340;-91
2021/01/25 06:45:34;;;;;;;6.68;4.05;;;;;;;0.72;67.69;94198.56;4942823;29;20098;-91
2021/01/25 06:48:00;;;;;;;7.07;5.65;;;;;;;0.10;68.53;94110.63;4949686;29;20032;-92
2021/01/25 06:50:25;;;;;;;6.38;5.05;;;;;;;0.66;67.41;94198.41;4942101;29;20086;-90
2021/01/25 06:52:52;;;;;;;3.30;2.90;;;;;;;0.71;68.56;94205.09;4939066;29;20043;-91
2021/01/25 06:55:18;;;;;;;10.38;5.43;;;;;;;0.19;65.08;94140.75;4939466;29;20035;-91
2021/01/25 06:57:47;;;;;;;6.38;4.63;;;;;;;0.68;67.75;94192.59;4940016;29;20020;-92
2021/01/25 07:00:19;;;;;;;4.65;3.42;;;;;;;0.68;67.75;94192.59;4962466;28;20023;-91
2021/01/25 07:02:51;;;;;;;4.95;3.60;;;;;;;0.84;66.93;94215.63;4924661;29;20337;-93
2021/01/25 07:05:27;;;;;;;4.28;3.30;;;;;;;0.89;66.96;94215.78;4950095;28;20332;-91
2021/01/25 07:08:15;;;;;;;4.90;3.40;;;;;;;0.84;66.83;94227.06;4940954;29;20095;-91
2021/01/25 07:11:07;;;;;;;3.38;3.00;;;;;;;0.63;66.53;94179.84;4922691;29;20040;-90
2021/01/25 07:13:35;;;;;;;3.80;3.33;;;;;;;0.40;67.34;94162.47;4931215;29;20082;-91
2021/01/25 07:16:02;;;;;;;7.15;4.60;;;;;;;0.51;68.26;94190.22;4941109;29;20055;-90
2021/01/25 07:18:28;;;;;;;3.78;3.22;;;;;;;0.25;66.03;94146.25;4938536;29;20055;-91
2021/01/25 07:20:56;;;;;;;5.40;4.10;;;;;;;0.79;66.03;94228.41;4920998;29;20369;-92
2021/01/25 07:23:24;;;;;;;5.68;3.75;;;;;;;0.34;67.55;94167.66;4922184;29;20035;-91
2021/01/25 07:25:57;;;;;;;10.57;6.97;;;;;;;0.81;67.21;94238.66;4927999;29;20024;-90
2021/01/25 07:28:24;;;;;;;10.38;6.15;;;;;;;0.27;65.25;94173.28;4939114;29;20031;-91
2021/01/25 07:30:50;;;;;;;13.77;8.80;;;;;;;0.70;64.69;94241.03;4941537;29;20106;-91
2021/01/25 07:33:17;;;;;;;11.20;7.55;;;;;;;0.51;65.55;94213.53;4948426;29;20027;-89
2021/01/25 07:35:42;;;;;;;13.77;9.10;;;;;;;0.70;63.97;94246.38;4940911;29;20027;-91
2021/01/25 07:38:08;;;;;;;22.80;14.40;;;;;;;0.75;65.31;94243.13;4931399;29;20404;-90
2021/01/25 07:40:34;;;;;;;34.22;22.58;;;;;;;0.41;63.63;94202.06;4933298;29;20028;-91
2021/01/25 07:43:03;;;;;;;5.82;3.85;;;;;;;0.35;62.58;94192.41;4943997;29;20030;-91
2021/01/25 07:45:29;;;;;;;7.85;5.70;;;;;;;0.53;63.58;94213.81;4941387;29;20038;-91
2021/01/25 07:47:55;;;;;;;15.95;11.00;;;;;;;0.18;64.22;94165.97;4943571;29;21340;-91
2021/01/25 07:50:20;;;;;;;7.80;5.38;;;;;;;0.38;64.95;94192.28;4943812;29;20107;-90
2021/01/25 07:52:59;;;;;;;7.25;4.22;;;;;;;0.59;65.15;94193.34;4943228;28;20407;-92
2021/01/25 07:55:25;;;;;;;5.82;4.05;;;;;;;0.21;63.40;94134.97;4941407;29;20035;-91
2021/01/25 08:01:19;;;;;;;11.23;6.45;;;;;;;0.61;64.29;94190.25;4938813;29;20051;-91
2021/01/25 08:03:50;;;;;;;7.50;5.10;;;;;;;0.42;65.76;94163.47;4936115;29;20115;-91
2021/01/25 08:06:17;;;;;;;8.65;5.00;;;;;;;0.68;64.28;94203.28;4963584;28;20042;-91
2021/01/25 08:08:47;;;;;;;4.07;3.45;;;;;;;0.46;63.17;94180.13;4940798;29;20039;-91
2021/01/25 08:11:13;;;;;;;4.38;3.78;;;;;;;0.89;65.08;94242.50;4940326;29;20027;-91
2021/01/25 08:13:55;;;;;;;5.20;4.03;;;;;;;0.66;65.14;94189.66;4940087;29;20118;-92
2021/01/25 08:16:26;;;;;;;4.78;4.05;;;;;;;0.43;63.94;94164.25;4936856;29;20055;-92
2021/01/25 08:19:09;;;;;;;5.70;4.45;;;;;;;0.90;66.11;94256.63;4921569;29;20131;-92
2021/01/25 08:21:47;;;;;;;4.75;3.65;;;;;;;0.51;65.01;94216.19;4926532;29;20360;-93
2021/01/25 08:24:13;;;;;;;6.70;4.00;;;;;;;0.51;67.63;94200.91;4939645;29;20038;-92
2021/01/25 08:26:39;;;;;;;6.00;3.97;;;;;;;0.59;66.53;94212.06;4921009;29;20035;-93
2021/01/25 08:29:18;;;;;;;6.25;4.68;;;;;;;0.63;67.38;94209.97;4935255;29;20028;-93
2021/01/25 08:31:45;;;;;;;7.15;4.18;;;;;;;1.13;66.64;94255.31;4936895;29;20091;-94
2021/01/25 08:34:23;;;;;;;5.50;3.85;;;;;;;1.13;67.53;94253.38;4921165;29;20031;-93
2021/01/25 08:37:01;;;;;;;6.57;3.80;;;;;;;0.55;65.44;94184.75;4920950;29;20046;-95
2021/01/25 08:39:34;;;;;;;5.22;3.75;;;;;;;0.66;67.58;94211.75;4943743;29;20031;-95
2021/01/25 08:42:02;;;;;;;5.78;3.90;;;;;;;0.58;64.92;94207.88;4932203;29;20043;-93
2021/01/25 08:44:28;;;;;;;5.22;4.05;;;;;;;0.45;65.28;94197.34;4927585;29;20030;-93
2021/01/25 08:47:05;;;;;;;5.85;4.57;;;;;;;0.26;66.10;94167.16;4940589;28;20032;-93
2021/01/25 08:49:37;;;;;;;6.75;4.28;;;;;;;0.92;68.52;94246.25;4950868;29;20019;-93
2021/01/25 08:52:20;;;;;;;6.88;4.20;;;;;;;0.98;67.30;94255.88;4945203;29;20479;-94
2021/01/25 08:54:46;;;;;;;5.82;4.15;;;;;;;0.78;67.31;94218.91;4926234;29;20047;-95
2021/01/25 08:57:32;;;;;;;5.82;4.20;;;;;;;1.09;69.12;94252.03;4933937;29;20040;-95
2021/01/25 09:00:10;;;;;;;6.40;4.80;;;;;;;0.96;67.14;94233.44;4937151;29;20070;-92
2021/01/25 09:02:35;;;;;;;8.35;5.40;;;;;;;0.95;69.71;94219.34;4947653;29;20043;-93
2021/01/25 09:05:00;;;;;;;10.35;7.50;;;;;;;0.79;68.76;94179.53;4957002;29;20027;-94
2021/01/25 09:07:26;;;;;;;10.98;7.55;;;;;;;1.05;69.04;94222.75;4938565;29;20328;-93
2021/01/25 09:09:51;;;;;;;7.28;6.05;;;;;;;0.96;68.04;94234.22;4940437;29;20016;-93
2021/01/25 09:12:18;;;;;;;8.10;6.63;;;;;;;1.42;69.54;94286.94;4937061;29;20035;-92
2021/01/25 09:14:44;;;;;;;10.82;7.00;;;;;;;1.42;69.54;94286.94;4933817;29;20075;-92
2021/01/25 09:17:12;;;;;;;12.00;6.80;;;;;;;1.19;69.30;94278.34;4939261;29;20028;-92
2021/01/25 09:19:38;;;;;;;7.95;6.53;;;;;;;1.04;69.54;94248.75;4955743;28;20057;-94
2021/01/25 09:22:05;;;;;;;9.63;6.10;;;;;;;1.47;69.62;94299.72;4955460;29;20039;-94
2021/01/25 09:24:31;;;;;;;7.05;5.80;;;;;;;1.47;69.62;94299.72;4954593;29;20085;-92
2021/01/25 09:26:56;;;;;;;13.50;6.95;;;;;;;1.56;68.45;94299.72;4959293;28;20028;-95
2021/01/25 09:29:22;;;;;;;12.55;6.22;;;;;;;0.98;68.96;94207.75;4920415;29;20031;-93
2021/01/25 09:31:47;;;;;;;12.75;5.80;;;;;;;1.03;68.42;94219.81;4938793;29;20432;-93
2021/01/25 09:34:12;;;;;;;10.60;6.00;;;;;;;1.03;69.34;94217.13;4939200;29;20465;-93
2021/01/25 09:36:38;;;;;;;14.57;6.95;;;;;;;1.19;68.76;94248.91;4943766;29;20031;-93
2021/01/25 09:39:06;;;;;;;11.50;7.50;;;;;;;1.46;68.95;94274.16;4936441;28;20032;-93
2021/01/25 09:41:31;;;;;;;11.15;7.20;;;;;;;1.31;68.21;94244.59;4926212;29;20122;-94
2021/01/25 09:43:57;;;;;;;9.93;6.47;;;;;;;1.46;67.84;94260.78;4945117;29;20052;-94
2021/01/25 09:46:23;;;;;;;11.32;6.65;;;;;;;1.16;68.09;94233.75;4958937;29;20062;-94
2021/01/25 09:52:11;;;;;;;21.20;13.82;;;;;;;1.03;66.35;94241.94;4941174;29;20038;-93
2021/01/25 09:54:39;;;;;;;9.95;8.13;;;;;;;0.96;65.86;94212.06;4939457;29;20027;-92
2021/01/25 09:57:04;;;;;;;9.48;7.53;;;;;;;1.20;66.06;94229.00;4934639;29;20159;-92
2021/01/25 09:59:30;;;;;;;9.40;6.53;;;;;;;0.97;65.31;94200.94;4940250;29;20126;-92
2021/01/25 10:01:55;;;;;;;7.15;5.18;;;;;;;1.41;65.25;94264.06;4956051;29;20035;-93
2021/01/25 10:04:21;;;;;;;6.95;5.88;;;;;;;0.95;66.28;94205.97;4955107;29;20031;-94
2021/01/25 10:06:46;;;;;;;7.18;4.25;;;;;;;1.16;64.25;94233.00;4936847;29;20024;-94
2021/01/25 10:09:12;;;;;;;7.78;4.47;;;;;;;1.00;65.64;94210.72;4927991;29;20031;-93
2021/01/25 10:11:37;;;;;;;11.25;5.43;;;;;;;1.05;66.91;94226.19;4938947;29;20031;-94
2021/01/25 10:14:03;;;;;;;8.00;5.57;;;;;;;1.29;64.77;94271.78;4938700;29;20059;-93
2021/01/25 10:16:29;;;;;;;9.73;6.97;;;;;;;1.29;65.50;94249.66;4938670;29;20028;-94
2021/01/25 10:18:54;;;;;;;7.32;6.10;;;;;;;1.78;63.92;94319.03;4952464;29;20023;-94
2021/01/25 10:21:20;;;;;;;6.78;5.10;;;;;;;1.60;63.14;94313.69;4948925;29;20042;-94
2021/01/25 10:23:47;;;;;;;6.70;5.40;;;;;;;1.60;63.16;94315.59;4970532;28;20054;-94
2021/01/25 10:26:13;;;;;;;7.70;5.30;;;;;;;1.63;62.25;94320.06;4970779;28;20369;-95
2021/01/25 10:32:01;;;;;;;8.82;5.45;;;;;;;1.31;62.95;94245.34;4950095;29;20082;-95
2021/01/25 10:34:26;;;;;;;6.57;4.88;;;;;;;1.09;62.73;94241.34;4957754;29;20368;-95
2021/01/25 10:36:52;;;;;;;6.25;4.47;;;;;;;1.37;64.40;94277.56;4957750;28;20412;-95
2021/01/25 10:39:18;;;;;;;8.32;5.05;;;;;;;1.42;64.71;94268.22;4957826;28;20122;-96
2021/01/25 10:41:44;;;;;;;7.05;4.82;;;;;;;1.15;63.39;94247.56;4957763;29;20415;-94
2021/01/25 10:44:09;;;;;;;8.57;4.88;;;;;;;1.27;62.46;94287.53;4956993;29;20033;-95
2021/01/25 10:46:35;;;;;;;9.55;5.35;;;;;;;1.31;65.76;94268.66;4941811;28;20028;-95
2021/01/25 10:52:22;;;;;;;10.30;6.47;;;;;;;1.70;65.35;94325.84;4956384;29;20356;-95
2021/01/25 10:54:47;;;;;;;7.25;5.40;;;;;;;1.04;62.71;94262.13;4950108;28;20023;-93
2021/01/25 10:57:13;;;;;;;7.78;5.05;;;;;;;0.66;61.60;94216.38;4942004;29;20059;-94
2021/01/25 10:59:38;;;;;;;8.90;6.60;;;;;;;1.41;64.60;94320.97;4941539;29;20024;-93
2021/01/25 11:02:05;;;;;;;9.38;6.53;;;;;;;1.04;66.10;94250.69;4939302;29;20036;-93
2021/01/25 11:04:30;;;;;;;8.25;6.32;;;;;;;1.04;65.27;94240.00;4943684;29;20027;-92
2021/01/25 11:06:56;;;;;;;7.60;6.30;;;;;;;1.45;66.23;94315.50;4942586;29;20035;-92
2021/01/25 11:09:22;;;;;;;12.27;8.57;;;;;;;1.26;67.32;94282.63;4933643;29;20031;-91
2021/01/25 11:11:47;;;;;;;11.18;8.90;;;;;;;1.04;68.05;94272.81;4942397;29;20035;-90
2021/01/25 11:14:13;;;;;;;14.02;9.85;;;;;;;1.67;69.78;94331.38;4939459;29;20060;-92
2021/01/25 11:16:38;;;;;;;9.35;7.00;;;;;;;1.44;66.26;94322.00;4960690;28;20435;-92
2021/01/25 11:19:04;;;;;;;10.93;8.05;;;;;;;1.12;69.23;94281.31;4960181;29;20412;-92
2021/01/25 11:21:29;;;;;;;13.35;10.82;;;;;;;1.13;69.55;94269.41;4965273;29;20023;-93
2021/01/25 11:23:55;;;;;;;12.82;10.23;;;;;;;1.35;70.32;94293.34;4971556;28;20074;-95
2021/01/25 11:26:22;;;;;;;8.52;7.05;;;;;;;1.07;69.38;94286.50;4945318;29;20032;-92
2021/01/25 11:28:47;;;;;;;10.40;7.28;;;;;;;0.86;69.46;94275.50;4948582;29;20138;-95
2021/01/25 11:31:13;;;;;;;8.07;6.38;;;;;;;0.86;69.45;94278.16;4958298;29;20031;-94
2021/01/25 11:33:39;;;;;;;11.02;7.70;;;;;;;0.94;71.07;94302.66;4960535;28;20172;-94
2021/01/25 11:36:06;;;;;;;9.20;6.72;;;;;;;1.15;100.00;86549.03;4944585;29;20048;-93
2021/01/25 11:38:31;;;;;;;10.80;6.82;;;;;;;0.74;72.90;94292.38;4943452;29;20032;-95
2021/01/25 11:40:57;;;;;;;8.77;7.05;;;;;;;0.74;72.90;94292.38;4924919;29;20442;-94
2021/01/25 11:43:23;;;;;;;8.38;5.60;;;;;;;0.74;71.10;94319.84;4921837;29;20093;-95
2021/01/25 11:45:50;;;;;;;8.27;6.55;;;;;;;0.74;71.10;94319.84;4921887;29;20320;-94
2021/01/25 11:48:17;;;;;;;9.57;6.75;;;;;;;0.74;71.10;94319.84;4922783;29;20029;-95
2021/01/25 11:50:44;;;;;;;9.35;6.07;;;;;;;0.74;71.10;94319.84;4927097;29;20298;-96